首页
METAR-TAF:

METAR-TAF

机场 :

明尼阿波利斯-圣保罗国际机场

明尼阿波利斯, 明尼蘇達州, 美国

纬度: 44-52-59N, 经度: 093-13-44W, 海拔: 256米

当前天气观测

该预报发布于28分钟前的07:53 UTC
风速10节,风向西
温度 2°C
湿度 93%
气压 1016 hPa
能見度: 16.1公里
阴天层高于600英尺

METAR: KMSP 030753Z 28010KT 10SM OVC006 02/01 A3001 RMK AO2 SLP167 T00170006 /

时间: 03:21 (08:21 UTC)

预报

该预报发布于2小时和40分钟前的05:41 UTC
预报有效从03日的 06点(UTC)到 04日的 12点(UTC)
风速12节,风向西,有时为18节阵风
能見度: 9.7公里
阴天层高于800英尺
小雨
从 03日的 1000点(UTC)
风速12节,风向西北,有时为20节阵风
能見度: 8.0公里
阴天层高于800英尺
(小) 冻, 雨, 轻雾
从 03日的 1600点(UTC)
风速12节,风向西转西北
能見度: 8.0公里
阴天层高于1200英尺
(小) 冻, 毛毛雨, 冰粒, 轻雾
从 03日的 1900点(UTC)
风速11节,风向西转西北
能見度: 10公里
多云层高于2000英尺
从 04日的 0200点(UTC)
风速8节,风向西北
能見度: 10公里
散云层高于3000英尺

TAF: KMSP 030541Z 0306/0412 26012G18KT 6SM -RA OVC008 FM031000 31012G20KT 5SM -FZRA BR OVC008 FM031600 30012KT 5SM -FZDZPL BR OVC012 FM031900 30011KT P6SM BKN020 FM040200 31008KT P6SM SCT030

超过4000个机场的气象观测和天气预报(METAR&TAF报告)。

可查询的气象台以黄色和红色小点在地图上表示。

将鼠标移到小点上方,可查看气象台名称。

然后点击查看天气观测和预报。

如需切换地图:点击带黑十字的绿色按钮放大地图;点击带横线的绿色按钮缩小地图;或者点击绿色箭头查看邻近地区的地图。


METAR-TAF: